Decoded Metar for LFML (MARSEILLE in FRANCE) (IATA:MRS) | Meteo·Mobile Aviation Weather
aviador You're here:

LFML Decoded Metar

MARSEILLE in FRANCE
Report Time2018-10-18 16:30:00
UTC Time2018-10-18 16:52:04
Flight Rules vfr VFR
Wind350° at 05 kt
W.Decomp.*RWY 31: 3.9 kt HW 3.1 kt RCW
W.Rank350° ranks 24
Current wind is below 350° avg. (6.9)
Visibility9999 m
Phenomena:N/A
Clouds:Few 013 Hf
Overcast 130 Hf
Expected CloudBase > 2,800 ft AGL from Temp-Dew spread
Ceiling13,000 ft
Temp23°C (ISA +8)
Dew Point16°C (65% RH)
QNH1012 hPa
Density Alt1,352 ft
Elevation118 ft
Report Wrong Elevation
Raw Report
METAR LFML 181630Z AUTO 35005KT 9999 FEW013 OVC130 23/16 Q1012 NOSIG=

Extra information for LFML:More info

Metar Taf Metar & Taf Last 4 Metars F.Rules Stats Wind Profile Meteogram Temp Stats Airport Information Weather charts Add Link Nearby VenuesMetar ALERT Operation Metar Decoded Social comments